Bueche, Louisiana
Current Conditions -  °F | °C
As of 3:21 AM on Monday 22 Dec 2014 (Local Time) from KBTR Reporting Station
Moderate Fog Moderate Fog  
Wind Chill: 54°   Ceiling: 200
Heat Index: 54°   Visibility: 0.25mi
Dew Point: 53°   Wind: 0mph
Humidity: 97%   Direction: NA
Pressure: 29.88"   Gusts: NA
Location:  30.57°N, 91.35°W
Report Text: KBTR 220921Z 00000KT 1/4SM FG VV002 12/12 A2988 RMK AO2 T01220117 RVRNO
Loading
Personal Weather Stations






























Interactive Weather Map New forecast layout! Learn more

10-Day Weather Forecast

Advertisements
Track Severe Weather on mobile